Portada
METAR-TAF:

METAR-TAF

Aeropuertos :

Wick, Escocia

latitud: 58-27N, longitud: 003-05W, altitud: 39 m

Observación

El informe se hizo hace 38 minutos, a las 19:50 UTC
Viento 4 kt del oeste-noroeste
Temperatura 12°C
Humedad 88%
Presión 1008 hPa
Visibilidad 10 km o más

METAR: EGPC 151950Z AUTO 30004KT 9999 OVC011/// 12/10 Q1008

Hora: 21:28 (20:28 UTC)

Pronóstico

El informe se hizo hace 3 horas y 28 minutos, a las 17:00 UTC
Pronóstico válido del 15 a las 18 UTC al 16 a las 03 UTC
Viento 5 kt del oeste
Visibilidad 10 km o más
Cielo nuboso a una altura de 1600 ft
Temporalmente
del 15 a las 18 UTC al 16 a las 03 UTC
Visibilidad: 7000 m
Cielo nuboso a una altura de 1100 ft
Probabilidad 30% :
Temporalmente
del 15 a las 18 UTC al 16 a las 03 UTC
Visibilidad: 3000 m
Cielo nuboso a una altura de 400 ft
neblina, llovizna,

TAF: EGPC 151700Z 1518/1603 28005KT 9999 BKN016 TEMPO 1518/1603 7000 BKN011 PROB30 TEMPO 1518/1603 3000 BR DZ BKN004

Observaciones y pronósticos meteorológicos de más de 4000 aeropuertos (mensajes METAR y TAF).

Los puntos amarillos y rojos representan las estaciones disponibles.

Ponga el ratón en el punto deseado para ver el nombre de la estación.

Haga clic para ver las observaciones y los pronósticos meteorológicos.

Para cambiar el mapa : haga clic en los botones verdes con una cruz de color negro para hacer un zoom, en el botón verde con un guión para alejar o en las flechas verdes para mapas adyacentes.


METAR-TAF: